sensor_id;sensor_type;location;lat;lon;timestamp;P1;durP1;ratioP1;P2;durP2;ratioP2
75356;SDS011;63946;51.986;5.930;2023-04-09T00:01:08;22.60;;;15.80;;
75356;SDS011;63946;51.986;5.930;2023-04-09T00:03:38;24.08;;;15.18;;
75356;SDS011;63946;51.986;5.930;2023-04-09T00:06:07;35.08;;;20.20;;
75356;SDS011;63946;51.986;5.930;2023-04-09T00:08:36;25.48;;;17.05;;
75356;SDS011;63946;51.986;5.930;2023-04-09T00:11:04;23.55;;;15.93;;
75356;SDS011;63946;51.986;5.930;2023-04-09T00:13:33;24.20;;;16.00;;
75356;SDS011;63946;51.986;5.930;2023-04-09T00:16:02;31.48;;;17.27;;
75356;SDS011;63946;51.986;5.930;2023-04-09T00:18:31;27.05;;;15.93;;
75356;SDS011;63946;51.986;5.930;2023-04-09T00:21:03;26.58;;;16.95;;
75356;SDS011;63946;51.986;5.930;2023-04-09T00:23:33;31.52;;;17.70;;
75356;SDS011;63946;51.986;5.930;2023-04-09T00:26:02;29.83;;;18.75;;
75356;SDS011;63946;51.986;5.930;2023-04-09T00:28:31;30.10;;;19.00;;
75356;SDS011;63946;51.986;5.930;2023-04-09T00:31:00;28.92;;;17.60;;
75356;SDS011;63946;51.986;5.930;2023-04-09T00:33:30;27.88;;;17.02;;
75356;SDS011;63946;51.986;5.930;2023-04-09T00:35:59;27.38;;;17.23;;
75356;SDS011;63946;51.986;5.930;2023-04-09T00:38:27;28.15;;;17.95;;
75356;SDS011;63946;51.986;5.930;2023-04-09T00:40:59;31.85;;;18.70;;
75356;SDS011;63946;51.986;5.930;2023-04-09T00:43:28;26.25;;;17.25;;
75356;SDS011;63946;51.986;5.930;2023-04-09T00:45:57;26.73;;;17.98;;
75356;SDS011;63946;51.986;5.930;2023-04-09T00:48:27;29.15;;;16.35;;
75356;SDS011;63946;51.986;5.930;2023-04-09T00:50:56;28.98;;;18.02;;
75356;SDS011;63946;51.986;5.930;2023-04-09T00:53:25;25.88;;;16.05;;
75356;SDS011;63946;51.986;5.930;2023-04-09T00:55:54;27.35;;;17.13;;
75356;SDS011;63946;51.986;5.930;2023-04-09T00:58:24;32.47;;;17.38;;
75356;SDS011;63946;51.986;5.930;2023-04-09T01:00:54;28.92;;;17.05;;
75356;SDS011;63946;51.986;5.930;2023-04-09T01:03:22;34.33;;;20.23;;
75356;SDS011;63946;51.986;5.930;2023-04-09T01:06:11;26.45;;;16.85;;
75356;SDS011;63946;51.986;5.930;2023-04-09T01:09:02;26.83;;;17.13;;
75356;SDS011;63946;51.986;5.930;2023-04-09T01:17:15;28.88;;;18.08;;
75356;SDS011;63946;51.986;5.930;2023-04-09T01:20:00;26.23;;;16.20;;
75356;SDS011;63946;51.986;5.930;2023-04-09T01:28:17;28.80;;;18.00;;
75356;SDS011;63946;51.986;5.930;2023-04-09T01:30:58;29.52;;;18.17;;
75356;SDS011;63946;51.986;5.930;2023-04-09T01:33:30;27.10;;;17.92;;
75356;SDS011;63946;51.986;5.930;2023-04-09T01:36:02;27.90;;;17.58;;
75356;SDS011;63946;51.986;5.930;2023-04-09T01:38:33;29.33;;;15.93;;
75356;SDS011;63946;51.986;5.930;2023-04-09T01:41:06;24.73;;;15.50;;
75356;SDS011;63946;51.986;5.930;2023-04-09T01:43:39;26.83;;;17.33;;
75356;SDS011;63946;51.986;5.930;2023-04-09T01:46:09;27.25;;;17.42;;
75356;SDS011;63946;51.986;5.930;2023-04-09T01:48:39;24.48;;;16.50;;
75356;SDS011;63946;51.986;5.930;2023-04-09T01:51:08;29.13;;;19.33;;
75356;SDS011;63946;51.986;5.930;2023-04-09T01:53:39;28.73;;;19.35;;
75356;SDS011;63946;51.986;5.930;2023-04-09T01:56:08;26.92;;;17.02;;
75356;SDS011;63946;51.986;5.930;2023-04-09T01:58:37;26.35;;;16.60;;
75356;SDS011;63946;51.986;5.930;2023-04-09T02:01:13;29.63;;;18.50;;
75356;SDS011;63946;51.986;5.930;2023-04-09T02:03:50;29.15;;;17.35;;
75356;SDS011;63946;51.986;5.930;2023-04-09T02:09:20;28.42;;;17.33;;
75356;SDS011;63946;51.986;5.930;2023-04-09T02:14:20;25.05;;;14.70;;
75356;SDS011;63946;51.986;5.930;2023-04-09T02:16:52;23.98;;;16.73;;
75356;SDS011;63946;51.986;5.930;2023-04-09T02:19:24;24.85;;;16.63;;
75356;SDS011;63946;51.986;5.930;2023-04-09T02:21:53;22.90;;;15.85;;
75356;SDS011;63946;51.986;5.930;2023-04-09T02:24:22;22.67;;;14.88;;
75356;SDS011;63946;51.986;5.930;2023-04-09T02:26:50;26.58;;;17.77;;
75356;SDS011;63946;51.986;5.930;2023-04-09T02:29:23;24.58;;;15.73;;
75356;SDS011;63946;51.986;5.930;2023-04-09T02:31:52;22.58;;;13.60;;
75356;SDS011;63946;51.986;5.930;2023-04-09T02:34:21;21.20;;;15.25;;
75356;SDS011;63946;51.986;5.930;2023-04-09T02:36:51;22.30;;;14.80;;
75356;SDS011;63946;51.986;5.930;2023-04-09T02:39:19;22.40;;;14.80;;
75356;SDS011;63946;51.986;5.930;2023-04-09T02:41:48;23.13;;;15.68;;
75356;SDS011;63946;51.986;5.930;2023-04-09T02:44:19;25.42;;;16.30;;
75356;SDS011;63946;51.986;5.930;2023-04-09T02:46:49;26.80;;;15.30;;
75356;SDS011;63946;51.986;5.930;2023-04-09T02:49:18;26.50;;;17.40;;
75356;SDS011;63946;51.986;5.930;2023-04-09T02:51:47;24.90;;;16.63;;
75356;SDS011;63946;51.986;5.930;2023-04-09T02:54:16;25.92;;;15.45;;
75356;SDS011;63946;51.986;5.930;2023-04-09T02:56:45;24.63;;;17.13;;
75356;SDS011;63946;51.986;5.930;2023-04-09T02:59:14;32.88;;;18.67;;
75356;SDS011;63946;51.986;5.930;2023-04-09T03:01:43;31.00;;;19.10;;
75356;SDS011;63946;51.986;5.930;2023-04-09T03:04:12;24.80;;;15.90;;
75356;SDS011;63946;51.986;5.930;2023-04-09T03:06:40;24.35;;;15.63;;
75356;SDS011;63946;51.986;5.930;2023-04-09T03:09:09;25.98;;;16.65;;
75356;SDS011;63946;51.986;5.930;2023-04-09T03:11:38;24.08;;;16.25;;
75356;SDS011;63946;51.986;5.930;2023-04-09T03:14:07;25.40;;;16.67;;
75356;SDS011;63946;51.986;5.930;2023-04-09T03:16:35;24.23;;;16.35;;
75356;SDS011;63946;51.986;5.930;2023-04-09T03:19:04;24.02;;;15.63;;
75356;SDS011;63946;51.986;5.930;2023-04-09T03:21:36;24.33;;;16.00;;
75356;SDS011;63946;51.986;5.930;2023-04-09T03:24:05;26.20;;;17.02;;
75356;SDS011;63946;51.986;5.930;2023-04-09T03:26:34;27.70;;;16.67;;
75356;SDS011;63946;51.986;5.930;2023-04-09T03:29:05;27.45;;;18.75;;
75356;SDS011;63946;51.986;5.930;2023-04-09T03:31:34;27.77;;;16.73;;
75356;SDS011;63946;51.986;5.930;2023-04-09T03:34:03;24.75;;;16.15;;
75356;SDS011;63946;51.986;5.930;2023-04-09T03:36:32;25.35;;;14.00;;
75356;SDS011;63946;51.986;5.930;2023-04-09T03:39:02;24.75;;;16.13;;
75356;SDS011;63946;51.986;5.930;2023-04-09T03:41:35;25.90;;;15.90;;
75356;SDS011;63946;51.986;5.930;2023-04-09T03:44:08;24.42;;;15.35;;
75356;SDS011;63946;51.986;5.930;2023-04-09T03:46:57;22.42;;;14.73;;
75356;SDS011;63946;51.986;5.930;2023-04-09T03:49:28;27.05;;;17.38;;
75356;SDS011;63946;51.986;5.930;2023-04-09T03:52:06;25.45;;;15.50;;
75356;SDS011;63946;51.986;5.930;2023-04-09T03:54:40;27.38;;;17.73;;
75356;SDS011;63946;51.986;5.930;2023-04-09T03:57:14;27.25;;;17.88;;
75356;SDS011;63946;51.986;5.930;2023-04-09T03:59:45;28.27;;;18.33;;
75356;SDS011;63946;51.986;5.930;2023-04-09T04:02:17;26.05;;;15.85;;
75356;SDS011;63946;51.986;5.930;2023-04-09T04:04:55;22.45;;;14.40;;
75356;SDS011;63946;51.986;5.930;2023-04-09T04:07:28;23.67;;;16.10;;
75356;SDS011;63946;51.986;5.930;2023-04-09T04:10:03;25.85;;;16.42;;
75356;SDS011;63946;51.986;5.930;2023-04-09T04:12:33;24.00;;;15.77;;
75356;SDS011;63946;51.986;5.930;2023-04-09T04:15:15;24.13;;;16.00;;
75356;SDS011;63946;51.986;5.930;2023-04-09T04:17:49;23.55;;;16.00;;
75356;SDS011;63946;51.986;5.930;2023-04-09T04:20:39;26.00;;;15.43;;
75356;SDS011;63946;51.986;5.930;2023-04-09T04:23:12;26.17;;;17.00;;
75356;SDS011;63946;51.986;5.930;2023-04-09T04:25:49;23.70;;;16.08;;
75356;SDS011;63946;51.986;5.930;2023-04-09T04:28:24;26.85;;;16.25;;
75356;SDS011;63946;51.986;5.930;2023-04-09T04:30:53;23.45;;;14.88;;
75356;SDS011;63946;51.986;5.930;2023-04-09T04:33:21;21.80;;;13.50;;
75356;SDS011;63946;51.986;5.930;2023-04-09T04:35:53;24.65;;;16.55;;
75356;SDS011;63946;51.986;5.930;2023-04-09T04:38:35;24.13;;;15.35;;
75356;SDS011;63946;51.986;5.930;2023-04-09T04:41:11;28.35;;;17.67;;
75356;SDS011;63946;51.986;5.930;2023-04-09T04:43:47;21.38;;;13.95;;
75356;SDS011;63946;51.986;5.930;2023-04-09T04:46:21;25.48;;;16.27;;
75356;SDS011;63946;51.986;5.930;2023-04-09T04:48:50;25.85;;;15.57;;
75356;SDS011;63946;51.986;5.930;2023-04-09T04:51:21;26.40;;;16.05;;
75356;SDS011;63946;51.986;5.930;2023-04-09T04:54:00;24.70;;;15.50;;
75356;SDS011;63946;51.986;5.930;2023-04-09T04:56:29;25.08;;;15.40;;
75356;SDS011;63946;51.986;5.930;2023-04-09T04:59:03;25.30;;;16.13;;
75356;SDS011;63946;51.986;5.930;2023-04-09T05:01:44;26.95;;;16.70;;
75356;SDS011;63946;51.986;5.930;2023-04-09T05:04:13;25.52;;;16.08;;
75356;SDS011;63946;51.986;5.930;2023-04-09T05:06:42;24.15;;;15.77;;
75356;SDS011;63946;51.986;5.930;2023-04-09T05:09:16;28.63;;;17.42;;
75356;SDS011;63946;51.986;5.930;2023-04-09T05:11:57;28.33;;;16.48;;
75356;SDS011;63946;51.986;5.930;2023-04-09T05:14:26;26.48;;;16.95;;
75356;SDS011;63946;51.986;5.930;2023-04-09T05:16:55;24.42;;;16.13;;
75356;SDS011;63946;51.986;5.930;2023-04-09T05:19:29;26.70;;;15.60;;
75356;SDS011;63946;51.986;5.930;2023-04-09T05:22:01;26.80;;;16.55;;
75356;SDS011;63946;51.986;5.930;2023-04-09T05:24:32;24.73;;;15.68;;
75356;SDS011;63946;51.986;5.930;2023-04-09T05:27:01;26.70;;;14.85;;
75356;SDS011;63946;51.986;5.930;2023-04-09T05:29:30;23.25;;;13.95;;
75356;SDS011;63946;51.986;5.930;2023-04-09T05:31:59;25.30;;;16.67;;
75356;SDS011;63946;51.986;5.930;2023-04-09T05:34:33;23.38;;;15.07;;
75356;SDS011;63946;51.986;5.930;2023-04-09T05:37:03;20.70;;;14.65;;
75356;SDS011;63946;51.986;5.930;2023-04-09T05:39:33;25.20;;;15.93;;
75356;SDS011;63946;51.986;5.930;2023-04-09T05:42:02;25.63;;;14.63;;
75356;SDS011;63946;51.986;5.930;2023-04-09T05:44:39;22.65;;;13.77;;
75356;SDS011;63946;51.986;5.930;2023-04-09T05:47:15;27.73;;;16.65;;
75356;SDS011;63946;51.986;5.930;2023-04-09T05:49:54;24.77;;;15.02;;
75356;SDS011;63946;51.986;5.930;2023-04-09T05:52:23;24.40;;;15.05;;
75356;SDS011;63946;51.986;5.930;2023-04-09T05:54:54;24.00;;;14.63;;
75356;SDS011;63946;51.986;5.930;2023-04-09T05:57:31;25.20;;;16.13;;
75356;SDS011;63946;51.986;5.930;2023-04-09T06:00:03;25.40;;;15.77;;
75356;SDS011;63946;51.986;5.930;2023-04-09T06:02:42;25.92;;;15.75;;
75356;SDS011;63946;51.986;5.930;2023-04-09T06:05:14;22.63;;;14.18;;
75356;SDS011;63946;51.986;5.930;2023-04-09T06:07:44;28.60;;;15.38;;
75356;SDS011;63946;51.986;5.930;2023-04-09T06:10:13;28.13;;;17.10;;
75356;SDS011;63946;51.986;5.930;2023-04-09T06:12:42;27.27;;;15.23;;
75356;SDS011;63946;51.986;5.930;2023-04-09T06:15:11;24.33;;;14.60;;
75356;SDS011;63946;51.986;5.930;2023-04-09T06:17:40;28.13;;;15.88;;
75356;SDS011;63946;51.986;5.930;2023-04-09T06:20:09;26.05;;;16.17;;
75356;SDS011;63946;51.986;5.930;2023-04-09T06:22:38;25.58;;;15.77;;
75356;SDS011;63946;51.986;5.930;2023-04-09T06:25:07;23.20;;;13.70;;
75356;SDS011;63946;51.986;5.930;2023-04-09T06:27:36;29.45;;;17.35;;
75356;SDS011;63946;51.986;5.930;2023-04-09T06:30:07;24.77;;;16.83;;
75356;SDS011;63946;51.986;5.930;2023-04-09T06:32:40;27.92;;;16.85;;
75356;SDS011;63946;51.986;5.930;2023-04-09T06:35:12;30.08;;;16.85;;
75356;SDS011;63946;51.986;5.930;2023-04-09T06:37:41;26.70;;;16.80;;
75356;SDS011;63946;51.986;5.930;2023-04-09T06:40:10;28.20;;;18.42;;
75356;SDS011;63946;51.986;5.930;2023-04-09T06:42:39;32.45;;;19.02;;
75356;SDS011;63946;51.986;5.930;2023-04-09T06:45:16;27.40;;;16.65;;
75356;SDS011;63946;51.986;5.930;2023-04-09T06:47:45;33.85;;;18.92;;
75356;SDS011;63946;51.986;5.930;2023-04-09T06:50:13;26.13;;;15.77;;
75356;SDS011;63946;51.986;5.930;2023-04-09T06:52:44;28.20;;;17.75;;
75356;SDS011;63946;51.986;5.930;2023-04-09T06:55:13;26.77;;;15.65;;
75356;SDS011;63946;51.986;5.930;2023-04-09T06:57:45;31.77;;;17.35;;
75356;SDS011;63946;51.986;5.930;2023-04-09T07:00:13;28.33;;;17.65;;
75356;SDS011;63946;51.986;5.930;2023-04-09T07:02:45;27.60;;;16.75;;
75356;SDS011;63946;51.986;5.930;2023-04-09T07:05:14;28.05;;;17.35;;
75356;SDS011;63946;51.986;5.930;2023-04-09T07:07:43;28.73;;;17.23;;
75356;SDS011;63946;51.986;5.930;2023-04-09T07:10:11;31.80;;;16.05;;
75356;SDS011;63946;51.986;5.930;2023-04-09T07:12:40;28.77;;;15.65;;
75356;SDS011;63946;51.986;5.930;2023-04-09T07:15:09;26.67;;;16.88;;
75356;SDS011;63946;51.986;5.930;2023-04-09T07:17:38;22.92;;;15.50;;
75356;SDS011;63946;51.986;5.930;2023-04-09T07:20:07;28.65;;;17.52;;
75356;SDS011;63946;51.986;5.930;2023-04-09T07:22:36;27.88;;;16.80;;
75356;SDS011;63946;51.986;5.930;2023-04-09T07:25:05;24.85;;;16.05;;
75356;SDS011;63946;51.986;5.930;2023-04-09T07:27:34;27.58;;;17.05;;
75356;SDS011;63946;51.986;5.930;2023-04-09T07:30:03;24.95;;;17.27;;
75356;SDS011;63946;51.986;5.930;2023-04-09T07:32:32;30.20;;;18.80;;
75356;SDS011;63946;51.986;5.930;2023-04-09T07:35:01;27.55;;;17.42;;
75356;SDS011;63946;51.986;5.930;2023-04-09T07:37:31;27.80;;;17.75;;
75356;SDS011;63946;51.986;5.930;2023-04-09T07:40:00;27.45;;;17.75;;
75356;SDS011;63946;51.986;5.930;2023-04-09T07:42:30;32.05;;;19.60;;
75356;SDS011;63946;51.986;5.930;2023-04-09T07:44:59;26.40;;;16.77;;
75356;SDS011;63946;51.986;5.930;2023-04-09T07:47:28;27.60;;;18.02;;
75356;SDS011;63946;51.986;5.930;2023-04-09T07:49:59;29.70;;;17.92;;
75356;SDS011;63946;51.986;5.930;2023-04-09T07:52:28;29.05;;;18.60;;
75356;SDS011;63946;51.986;5.930;2023-04-09T07:55:00;29.63;;;17.58;;
75356;SDS011;63946;51.986;5.930;2023-04-09T07:57:32;24.92;;;16.58;;
75356;SDS011;63946;51.986;5.930;2023-04-09T08:00:01;25.77;;;15.90;;
75356;SDS011;63946;51.986;5.930;2023-04-09T08:02:38;28.30;;;18.10;;
75356;SDS011;63946;51.986;5.930;2023-04-09T08:05:08;27.95;;;19.02;;
75356;SDS011;63946;51.986;5.930;2023-04-09T08:07:37;28.88;;;18.60;;
75356;SDS011;63946;51.986;5.930;2023-04-09T08:10:06;31.90;;;19.52;;
75356;SDS011;63946;51.986;5.930;2023-04-09T08:12:39;31.85;;;19.70;;
75356;SDS011;63946;51.986;5.930;2023-04-09T08:15:08;30.10;;;19.10;;
75356;SDS011;63946;51.986;5.930;2023-04-09T08:17:37;27.27;;;17.90;;
75356;SDS011;63946;51.986;5.930;2023-04-09T08:20:06;27.30;;;17.25;;
75356;SDS011;63946;51.986;5.930;2023-04-09T08:22:35;28.20;;;17.90;;
75356;SDS011;63946;51.986;5.930;2023-04-09T08:25:05;28.02;;;17.40;;
75356;SDS011;63946;51.986;5.930;2023-04-09T08:27:34;24.45;;;16.50;;
75356;SDS011;63946;51.986;5.930;2023-04-09T08:30:04;20.73;;;15.05;;
75356;SDS011;63946;51.986;5.930;2023-04-09T08:32:33;24.20;;;15.98;;
75356;SDS011;63946;51.986;5.930;2023-04-09T08:35:02;19.83;;;12.93;;
75356;SDS011;63946;51.986;5.930;2023-04-09T08:37:33;22.67;;;14.18;;
75356;SDS011;63946;51.986;5.930;2023-04-09T08:40:02;23.73;;;15.90;;
75356;SDS011;63946;51.986;5.930;2023-04-09T08:42:34;21.63;;;15.23;;
75356;SDS011;63946;51.986;5.930;2023-04-09T08:45:09;26.92;;;17.45;;
75356;SDS011;63946;51.986;5.930;2023-04-09T08:47:39;21.40;;;14.05;;
75356;SDS011;63946;51.986;5.930;2023-04-09T08:50:10;18.15;;;12.70;;
75356;SDS011;63946;51.986;5.930;2023-04-09T08:52:38;23.10;;;15.02;;
75356;SDS011;63946;51.986;5.930;2023-04-09T08:55:12;23.10;;;15.00;;
75356;SDS011;63946;51.986;5.930;2023-04-09T08:57:43;20.33;;;13.80;;
75356;SDS011;63946;51.986;5.930;2023-04-09T09:00:12;18.35;;;12.70;;
75356;SDS011;63946;51.986;5.930;2023-04-09T09:05:46;19.05;;;13.52;;
75356;SDS011;63946;51.986;5.930;2023-04-09T09:08:22;19.50;;;13.10;;
75356;SDS011;63946;51.986;5.930;2023-04-09T09:13:21;16.42;;;11.60;;
75356;SDS011;63946;51.986;5.930;2023-04-09T09:15:54;16.42;;;10.80;;
75356;SDS011;63946;51.986;5.930;2023-04-09T09:18:41;20.13;;;13.40;;
75356;SDS011;63946;51.986;5.930;2023-04-09T09:21:15;18.48;;;12.73;;
75356;SDS011;63946;51.986;5.930;2023-04-09T09:23:45;18.38;;;13.18;;
75356;SDS011;63946;51.986;5.930;2023-04-09T09:26:20;15.43;;;12.15;;
75356;SDS011;63946;51.986;5.930;2023-04-09T09:29:00;18.15;;;12.77;;
75356;SDS011;63946;51.986;5.930;2023-04-09T09:31:33;18.45;;;12.45;;
75356;SDS011;63946;51.986;5.930;2023-04-09T09:34:15;18.42;;;13.00;;
75356;SDS011;63946;51.986;5.930;2023-04-09T09:36:45;19.63;;;12.98;;
75356;SDS011;63946;51.986;5.930;2023-04-09T09:39:15;19.17;;;12.80;;
75356;SDS011;63946;51.986;5.930;2023-04-09T09:41:44;17.23;;;12.35;;
75356;SDS011;63946;51.986;5.930;2023-04-09T09:44:32;17.58;;;11.20;;
75356;SDS011;63946;51.986;5.930;2023-04-09T09:47:02;15.30;;;10.77;;
75356;SDS011;63946;51.986;5.930;2023-04-09T09:52:05;18.38;;;11.55;;
75356;SDS011;63946;51.986;5.930;2023-04-09T09:54:40;20.23;;;12.90;;
75356;SDS011;63946;51.986;5.930;2023-04-09T09:57:10;17.63;;;11.35;;
75356;SDS011;63946;51.986;5.930;2023-04-09T09:59:42;16.90;;;12.25;;
75356;SDS011;63946;51.986;5.930;2023-04-09T10:02:40;17.48;;;12.15;;
75356;SDS011;63946;51.986;5.930;2023-04-09T10:05:15;16.13;;;11.15;;
75356;SDS011;63946;51.986;5.930;2023-04-09T10:07:49;15.80;;;11.70;;
75356;SDS011;63946;51.986;5.930;2023-04-09T10:10:19;17.58;;;12.13;;
75356;SDS011;63946;51.986;5.930;2023-04-09T10:12:49;17.80;;;11.88;;
75356;SDS011;63946;51.986;5.930;2023-04-09T10:15:19;18.02;;;12.63;;
75356;SDS011;63946;51.986;5.930;2023-04-09T10:17:48;16.98;;;11.65;;
75356;SDS011;63946;51.986;5.930;2023-04-09T10:23:31;19.05;;;13.50;;
75356;SDS011;63946;51.986;5.930;2023-04-09T10:26:05;15.73;;;11.32;;
75356;SDS011;63946;51.986;5.930;2023-04-09T10:28:38;14.98;;;10.57;;
75356;SDS011;63946;51.986;5.930;2023-04-09T10:31:07;14.82;;;10.85;;
75356;SDS011;63946;51.986;5.930;2023-04-09T10:33:36;11.50;;;9.02;;
75356;SDS011;63946;51.986;5.930;2023-04-09T10:36:09;11.43;;;8.00;;
75356;SDS011;63946;51.986;5.930;2023-04-09T10:38:40;11.73;;;8.50;;
75356;SDS011;63946;51.986;5.930;2023-04-09T10:41:21;11.63;;;9.07;;
75356;SDS011;63946;51.986;5.930;2023-04-09T10:43:55;13.55;;;10.38;;
75356;SDS011;63946;51.986;5.930;2023-04-09T10:46:25;12.30;;;8.60;;
75356;SDS011;63946;51.986;5.930;2023-04-09T10:49:08;9.88;;;6.97;;
75356;SDS011;63946;51.986;5.930;2023-04-09T10:51:38;10.80;;;8.65;;
75356;SDS011;63946;51.986;5.930;2023-04-09T10:59:38;10.43;;;7.47;;
75356;SDS011;63946;51.986;5.930;2023-04-09T11:08:10;8.18;;;6.53;;
75356;SDS011;63946;51.986;5.930;2023-04-09T11:10:41;9.25;;;7.28;;
75356;SDS011;63946;51.986;5.930;2023-04-09T11:13:13;12.10;;;8.35;;
75356;SDS011;63946;51.986;5.930;2023-04-09T11:18:18;9.57;;;7.30;;
75356;SDS011;63946;51.986;5.930;2023-04-09T11:20:58;11.60;;;7.70;;
75356;SDS011;63946;51.986;5.930;2023-04-09T11:23:29;9.50;;;7.32;;
75356;SDS011;63946;51.986;5.930;2023-04-09T11:25:59;10.45;;;7.80;;
75356;SDS011;63946;51.986;5.930;2023-04-09T11:30:58;9.65;;;7.78;;
75356;SDS011;63946;51.986;5.930;2023-04-09T11:33:30;9.60;;;7.90;;
75356;SDS011;63946;51.986;5.930;2023-04-09T11:36:01;10.57;;;8.52;;
75356;SDS011;63946;51.986;5.930;2023-04-09T11:38:32;9.98;;;8.02;;
75356;SDS011;63946;51.986;5.930;2023-04-09T11:41:01;12.82;;;8.63;;
75356;SDS011;63946;51.986;5.930;2023-04-09T11:43:30;10.40;;;7.80;;
75356;SDS011;63946;51.986;5.930;2023-04-09T11:45:59;11.10;;;7.88;;
75356;SDS011;63946;51.986;5.930;2023-04-09T11:48:29;9.02;;;7.72;;
75356;SDS011;63946;51.986;5.930;2023-04-09T11:50:57;9.77;;;7.03;;
75356;SDS011;63946;51.986;5.930;2023-04-09T11:53:46;8.68;;;6.78;;
75356;SDS011;63946;51.986;5.930;2023-04-09T11:56:23;8.45;;;6.40;;
75356;SDS011;63946;51.986;5.930;2023-04-09T11:58:54;7.32;;;6.05;;
75356;SDS011;63946;51.986;5.930;2023-04-09T12:01:24;8.15;;;6.28;;
75356;SDS011;63946;51.986;5.930;2023-04-09T12:03:57;9.00;;;6.38;;
75356;SDS011;63946;51.986;5.930;2023-04-09T12:06:29;8.18;;;6.47;;
75356;SDS011;63946;51.986;5.930;2023-04-09T12:08:58;8.80;;;6.65;;
75356;SDS011;63946;51.986;5.930;2023-04-09T12:11:28;9.18;;;6.85;;
75356;SDS011;63946;51.986;5.930;2023-04-09T12:14:00;8.95;;;6.75;;
75356;SDS011;63946;51.986;5.930;2023-04-09T12:16:33;9.95;;;7.57;;
75356;SDS011;63946;51.986;5.930;2023-04-09T12:19:03;9.52;;;7.40;;
75356;SDS011;63946;51.986;5.930;2023-04-09T12:21:46;9.70;;;7.43;;
75356;SDS011;63946;51.986;5.930;2023-04-09T12:24:18;10.50;;;8.10;;
75356;SDS011;63946;51.986;5.930;2023-04-09T12:26:47;11.25;;;8.82;;
75356;SDS011;63946;51.986;5.930;2023-04-09T12:29:18;10.90;;;8.35;;
75356;SDS011;63946;51.986;5.930;2023-04-09T12:31:49;11.88;;;8.52;;
75356;SDS011;63946;51.986;5.930;2023-04-09T12:34:19;12.35;;;8.60;;
75356;SDS011;63946;51.986;5.930;2023-04-09T12:36:48;14.23;;;11.23;;
75356;SDS011;63946;51.986;5.930;2023-04-09T12:39:20;12.23;;;9.43;;
75356;SDS011;63946;51.986;5.930;2023-04-09T12:41:53;12.15;;;9.63;;
75356;SDS011;63946;51.986;5.930;2023-04-09T12:44:23;14.50;;;10.65;;
75356;SDS011;63946;51.986;5.930;2023-04-09T12:46:52;13.68;;;9.70;;
75356;SDS011;63946;51.986;5.930;2023-04-09T12:49:20;14.32;;;10.48;;
75356;SDS011;63946;51.986;5.930;2023-04-09T12:51:50;13.35;;;9.75;;
75356;SDS011;63946;51.986;5.930;2023-04-09T12:54:19;14.18;;;11.38;;
75356;SDS011;63946;51.986;5.930;2023-04-09T12:56:47;16.45;;;12.43;;
75356;SDS011;63946;51.986;5.930;2023-04-09T12:59:16;13.20;;;10.75;;
75356;SDS011;63946;51.986;5.930;2023-04-09T13:01:47;14.23;;;11.52;;
75356;SDS011;63946;51.986;5.930;2023-04-09T13:04:16;14.88;;;10.77;;
75356;SDS011;63946;51.986;5.930;2023-04-09T13:06:45;12.45;;;10.32;;
75356;SDS011;63946;51.986;5.930;2023-04-09T13:09:14;12.40;;;10.13;;
75356;SDS011;63946;51.986;5.930;2023-04-09T13:11:43;10.25;;;8.57;;
75356;SDS011;63946;51.986;5.930;2023-04-09T13:14:12;14.45;;;9.27;;
75356;SDS011;63946;51.986;5.930;2023-04-09T13:17:17;11.57;;;8.85;;
75356;SDS011;63946;51.986;5.930;2023-04-09T13:19:46;11.60;;;9.30;;
75356;SDS011;63946;51.986;5.930;2023-04-09T13:22:15;12.18;;;9.05;;
75356;SDS011;63946;51.986;5.930;2023-04-09T13:24:43;14.52;;;10.35;;
75356;SDS011;63946;51.986;5.930;2023-04-09T13:27:12;9.43;;;8.35;;
75356;SDS011;63946;51.986;5.930;2023-04-09T13:29:50;9.40;;;8.27;;
75356;SDS011;63946;51.986;5.930;2023-04-09T13:32:21;11.85;;;9.30;;
75356;SDS011;63946;51.986;5.930;2023-04-09T13:34:51;12.65;;;9.05;;
75356;SDS011;63946;51.986;5.930;2023-04-09T13:37:22;11.15;;;9.18;;
75356;SDS011;63946;51.986;5.930;2023-04-09T13:39:51;11.35;;;8.95;;
75356;SDS011;63946;51.986;5.930;2023-04-09T13:42:22;12.63;;;8.07;;
75356;SDS011;63946;51.986;5.930;2023-04-09T13:44:52;11.80;;;9.30;;
75356;SDS011;63946;51.986;5.930;2023-04-09T13:47:23;9.82;;;8.25;;
75356;SDS011;63946;51.986;5.930;2023-04-09T13:49:52;12.68;;;9.90;;
75356;SDS011;63946;51.986;5.930;2023-04-09T13:52:20;11.00;;;8.88;;
75356;SDS011;63946;51.986;5.930;2023-04-09T13:54:49;9.43;;;8.32;;
75356;SDS011;63946;51.986;5.930;2023-04-09T13:57:18;9.55;;;7.15;;
75356;SDS011;63946;51.986;5.930;2023-04-09T13:59:47;8.05;;;7.15;;
75356;SDS011;63946;51.986;5.930;2023-04-09T14:02:16;9.57;;;7.72;;
75356;SDS011;63946;51.986;5.930;2023-04-09T14:04:45;11.23;;;7.68;;
75356;SDS011;63946;51.986;5.930;2023-04-09T14:07:14;13.45;;;8.32;;
75356;SDS011;63946;51.986;5.930;2023-04-09T14:09:43;8.05;;;6.57;;
75356;SDS011;63946;51.986;5.930;2023-04-09T14:12:12;9.23;;;7.43;;
75356;SDS011;63946;51.986;5.930;2023-04-09T14:14:40;10.27;;;7.47;;
75356;SDS011;63946;51.986;5.930;2023-04-09T14:17:10;9.40;;;8.43;;
75356;SDS011;63946;51.986;5.930;2023-04-09T14:19:40;8.45;;;7.55;;
75356;SDS011;63946;51.986;5.930;2023-04-09T14:22:08;9.48;;;7.20;;
75356;SDS011;63946;51.986;5.930;2023-04-09T14:24:37;8.75;;;7.85;;
75356;SDS011;63946;51.986;5.930;2023-04-09T14:27:07;9.70;;;8.05;;
75356;SDS011;63946;51.986;5.930;2023-04-09T14:29:36;14.70;;;8.50;;
75356;SDS011;63946;51.986;5.930;2023-04-09T14:32:05;11.40;;;8.00;;
75356;SDS011;63946;51.986;5.930;2023-04-09T14:34:33;7.85;;;6.90;;
75356;SDS011;63946;51.986;5.930;2023-04-09T14:37:06;9.43;;;8.35;;
75356;SDS011;63946;51.986;5.930;2023-04-09T14:39:35;10.93;;;9.02;;
75356;SDS011;63946;51.986;5.930;2023-04-09T14:42:04;9.02;;;7.88;;
75356;SDS011;63946;51.986;5.930;2023-04-09T14:44:33;9.55;;;8.02;;
75356;SDS011;63946;51.986;5.930;2023-04-09T14:47:02;9.85;;;7.95;;
75356;SDS011;63946;51.986;5.930;2023-04-09T14:49:31;8.95;;;6.95;;
75356;SDS011;63946;51.986;5.930;2023-04-09T14:51:59;7.63;;;6.15;;
75356;SDS011;63946;51.986;5.930;2023-04-09T14:54:28;9.45;;;7.88;;
75356;SDS011;63946;51.986;5.930;2023-04-09T14:57:00;7.55;;;6.03;;
75356;SDS011;63946;51.986;5.930;2023-04-09T14:59:38;7.43;;;6.25;;
75356;SDS011;63946;51.986;5.930;2023-04-09T15:02:07;9.52;;;7.13;;
75356;SDS011;63946;51.986;5.930;2023-04-09T15:04:36;8.77;;;6.57;;
75356;SDS011;63946;51.986;5.930;2023-04-09T15:07:05;8.25;;;6.28;;
75356;SDS011;63946;51.986;5.930;2023-04-09T15:09:34;8.57;;;7.18;;
75356;SDS011;63946;51.986;5.930;2023-04-09T15:12:02;8.88;;;7.75;;
75356;SDS011;63946;51.986;5.930;2023-04-09T15:14:33;8.32;;;6.78;;
75356;SDS011;63946;51.986;5.930;2023-04-09T15:17:02;7.72;;;6.30;;
75356;SDS011;63946;51.986;5.930;2023-04-09T15:19:30;9.02;;;7.10;;
75356;SDS011;63946;51.986;5.930;2023-04-09T15:22:00;9.77;;;7.80;;
75356;SDS011;63946;51.986;5.930;2023-04-09T15:24:29;8.52;;;6.05;;
75356;SDS011;63946;51.986;5.930;2023-04-09T15:26:58;8.70;;;7.13;;
75356;SDS011;63946;51.986;5.930;2023-04-09T15:29:42;7.82;;;6.60;;
75356;SDS011;63946;51.986;5.930;2023-04-09T15:32:11;6.82;;;6.10;;
75356;SDS011;63946;51.986;5.930;2023-04-09T15:34:40;8.93;;;6.43;;
75356;SDS011;63946;51.986;5.930;2023-04-09T15:37:09;8.32;;;6.75;;